Hlavní strana
METAR-TAF:

METAR-TAF

Letiště :

Lee Gilmer Memorial Airport

Gainesville, Georgie, Spojené státy americké

zeměpisná šířka: 34-16-19N, zeměpisná délka: 083-49-49W, výška: 388 m

Aktuální stav počasí

Zpráva byla vytvořena před 1 hodinou a 1 minutami, v 22:53 UTC
Západní vítr 6 kt
Teplota 9°C
Vlhkost vzduchu 49%
Tlak 1016 hPa
Viditelnost: 16.1 km
Zataženo ve výšce 7000 ft

METAR: KGVL 262253Z AUTO 26006KT 10SM OVC070 09/M01 A3000 RMK AO2 RAB24E33 SLP161 P0000 T00891006

Čas: 18:54 (23:54 UTC)


TAF: chybějící

Stav a předpovědi počasí z více než 4 000 letišť (zprávy METAR a TAF).

Červené a žluté tečky na mapě představují dostupné meteorologické stanice.

Když kurzor umístíte na tečku, zobrazí se název stanice.

Pak kliknutím zobrazíte stav a předpověď počasí.

Chcete-li změnit mapu, kliknutím na zelené tlačítko se znaménkem +mapu přiblížíte, kliknutím na zelené tlačítko se znaménkem – mapu oddálíte a kliknutím na zelené šipky přejdete na sousední mapy.


METAR-TAF: